createdAt,value
2022-09-23T00:01:15.094Z,101807.47
2022-09-23T00:03:46.809Z,101808.28
2022-09-23T00:06:17.498Z,101800.38
2022-09-23T00:08:44.277Z,101802.31
2022-09-23T00:11:17.164Z,101801.63
2022-09-23T00:13:47.125Z,101799.31
2022-09-23T00:16:17.438Z,101802.91
2022-09-23T00:18:44.649Z,101803.34
2022-09-23T00:21:13.753Z,101792.66
2022-09-23T00:23:42.952Z,101785.63
2022-09-23T00:26:13.365Z,101790.34
2022-09-23T00:28:40.702Z,101795.88
2022-09-23T00:31:10.479Z,101789.53
2022-09-23T00:33:37.717Z,101785.94
2022-09-23T00:36:08.005Z,101787.44
2022-09-23T00:38:34.946Z,101782.28
2022-09-23T00:41:03.089Z,101780.34
2022-09-23T00:43:50.937Z,101784.22
2022-09-23T00:46:22.701Z,101789.75
2022-09-23T00:48:55.857Z,101779.97
2022-09-23T00:51:28.130Z,101785.16
2022-09-23T00:53:55.693Z,101791.47
2022-09-23T00:56:24.358Z,101780.09
2022-09-23T00:58:52.121Z,101780.91
2022-09-23T01:01:19.673Z,101778.94
2022-09-23T01:03:46.730Z,101776.97
2022-09-23T01:06:14.810Z,101777.78
2022-09-23T01:08:45.133Z,101775.00
2022-09-23T01:11:37.364Z,101773.06
2022-09-23T01:14:48.943Z,101766.03
2022-09-23T01:17:41.947Z,101760.19
2022-09-23T01:20:38.973Z,101765.69
2022-09-23T01:23:38.845Z,101756.59
2022-09-23T01:26:24.139Z,101746.69
2022-09-23T01:29:09.241Z,101742.91
2022-09-23T01:31:38.727Z,101752.00
2022-09-23T01:34:18.043Z,101749.13
2022-09-23T01:36:55.661Z,101742.66
2022-09-23T01:39:26.649Z,101751.66
2022-09-23T01:42:29.980Z,101755.47
2022-09-23T01:45:03.885Z,101745.44
2022-09-23T01:47:36.203Z,101744.50
2022-09-23T01:50:30.879Z,101739.66
2022-09-23T01:53:04.751Z,101734.09
2022-09-23T01:55:35.601Z,101723.66
2022-09-23T01:58:10.415Z,101723.16
2022-09-23T02:00:42.799Z,101707.97
2022-09-23T02:03:15.437Z,101709.34
2022-09-23T02:05:51.830Z,101704.41
2022-09-23T02:08:23.767Z,101714.53
2022-09-23T02:10:56.651Z,101719.91
2022-09-23T02:13:32.680Z,101711.06
2022-09-23T02:16:06.582Z,101714.03
2022-09-23T02:18:51.225Z,101712.28
2022-09-23T02:21:19.864Z,101710.91
2022-09-23T02:23:59.225Z,101708.38
2022-09-23T02:26:51.321Z,101711.31
2022-09-23T02:29:25.210Z,101706.84
2022-09-23T02:32:08.462Z,101701.66
2022-09-23T02:34:45.933Z,101696.47
2022-09-23T02:37:21.607Z,101687.41
2022-09-23T02:39:54.063Z,101691.78
2022-09-23T02:42:25.098Z,101681.06
2022-09-23T02:44:51.909Z,101677.53
2022-09-23T02:47:24.161Z,101676.22
2022-09-23T02:49:52.163Z,101671.06
2022-09-23T02:52:19.149Z,101674.97
2022-09-23T02:54:46.194Z,101670.59
2022-09-23T02:57:14.593Z,101672.06
2022-09-23T02:59:41.820Z,101675.06
2022-09-23T03:02:17.645Z,101666.66
2022-09-23T03:04:54.375Z,101662.97
2022-09-23T03:07:33.263Z,101653.06
2022-09-23T03:10:31.011Z,101651.44
2022-09-23T03:13:31.323Z,101646.28
2022-09-23T03:16:51.387Z,101644.22
2022-09-23T03:19:27.511Z,101640.19
2022-09-23T03:22:01.310Z,101639.84
2022-09-23T03:24:31.832Z,101641.78
2022-09-23T03:27:03.361Z,101643.41
2022-09-23T03:29:32.716Z,101640.50
2022-09-23T03:32:00.052Z,101634.53
2022-09-23T03:34:30.930Z,101643.50
2022-09-23T03:37:20.502Z,101636.03
2022-09-23T03:40:13.378Z,101638.78
2022-09-23T03:42:41.316Z,101631.19
2022-09-23T03:45:14.632Z,101636.72
2022-09-23T03:47:42.394Z,101626.47
2022-09-23T03:50:09.583Z,101633.47
2022-09-23T03:52:36.916Z,101635.31
2022-09-23T03:55:04.091Z,101627.72
2022-09-23T03:57:31.904Z,101621.38
2022-09-23T03:59:58.739Z,101624.47
2022-09-23T04:02:26.778Z,101624.16
2022-09-23T04:04:53.603Z,101618.63
2022-09-23T04:07:20.443Z,101616.00
2022-09-23T04:09:47.338Z,101610.94
2022-09-23T04:12:16.098Z,101613.34
2022-09-23T04:14:43.635Z,101603.13
2022-09-23T04:17:11.859Z,101609.13
2022-09-23T04:19:38.973Z,101608.31
2022-09-23T04:22:06.616Z,101617.88
2022-09-23T04:24:33.585Z,101611.66
2022-09-23T04:27:00.727Z,101615.38
2022-09-23T04:29:27.657Z,101614.34
2022-09-23T04:31:55.007Z,101610.91
2022-09-23T04:34:21.965Z,101612.66
2022-09-23T04:36:49.381Z,101608.53
2022-09-23T04:39:17.158Z,101606.47
2022-09-23T04:41:45.418Z,101607.84
2022-09-23T04:44:13.292Z,101601.66
2022-09-23T04:46:41.886Z,101604.06
2022-09-23T04:49:08.815Z,101601.88
2022-09-23T04:51:35.683Z,101599.22
2022-09-23T04:54:02.651Z,101592.56
2022-09-23T04:56:33.778Z,101596.03
2022-09-23T04:59:01.937Z,101589.69
2022-09-23T05:01:31.896Z,101593.34
2022-09-23T05:04:03.738Z,101588.78
2022-09-23T05:06:31.682Z,101592.78
2022-09-23T05:08:59.575Z,101590.03
2022-09-23T05:11:27.243Z,101597.63
2022-09-23T05:13:55.044Z,101600.63
2022-09-23T05:16:23.614Z,101602.34
2022-09-23T05:18:52.512Z,101605.56
2022-09-23T05:21:21.863Z,101599.13
2022-09-23T05:23:55.342Z,101599.13
2022-09-23T05:26:25.480Z,101599.56
2022-09-23T05:28:53.908Z,101598.78
2022-09-23T05:31:26.757Z,101594.75
2022-09-23T05:33:57.421Z,101604.19
2022-09-23T05:36:25.787Z,101606.47
2022-09-23T05:38:52.960Z,101606.03
2022-09-23T05:41:23.037Z,101605.69
2022-09-23T05:43:54.092Z,101610.03
2022-09-23T05:46:23.262Z,101602.13
2022-09-23T05:48:50.625Z,101607.66
2022-09-23T05:51:22.459Z,101606.16
2022-09-23T05:53:52.847Z,101601.88
2022-09-23T05:56:22.721Z,101603.63
2022-09-23T05:58:53.825Z,101603.84
2022-09-23T06:01:24.890Z,101602.56
2022-09-23T06:03:53.481Z,101597.28
2022-09-23T06:06:26.385Z,101601.97
2022-09-23T06:08:53.267Z,101599.22
2022-09-23T06:11:21.526Z,101594.59
2022-09-23T06:13:49.618Z,101597.25
2022-09-23T06:16:16.662Z,101590.31
2022-09-23T06:18:45.305Z,101596.84
2022-09-23T06:21:14.834Z,101591.53
2022-09-23T06:23:42.964Z,101599.66
2022-09-23T06:26:11.929Z,101596.75
2022-09-23T06:28:40.988Z,101602.13
2022-09-23T06:31:13.537Z,101602.66
2022-09-23T06:33:42.474Z,101605.63
2022-09-23T06:36:09.667Z,101599.03
2022-09-23T06:38:44.242Z,101597.97
2022-09-23T06:41:12.486Z,101602.81
2022-09-23T06:43:39.416Z,101608.16
2022-09-23T06:46:08.049Z,101609.19
2022-09-23T06:48:35.468Z,101607.03
2022-09-23T06:51:05.109Z,101606.41
2022-09-23T06:53:41.778Z,101605.72
2022-09-23T06:56:11.416Z,101605.91
2022-09-23T06:58:39.244Z,101607.03
2022-09-23T07:01:11.508Z,101609.31
2022-09-23T07:03:39.378Z,101605.91
2022-09-23T07:06:06.844Z,101601.25
2022-09-23T07:08:34.853Z,101604.09
2022-09-23T07:11:07.241Z,101598.19
2022-09-23T07:13:34.734Z,101602.72
2022-09-23T07:16:02.436Z,101600.47
2022-09-23T07:18:37.003Z,101596.31
2022-09-23T07:21:08.928Z,101598.28
2022-09-23T07:23:37.875Z,101603.25
2022-09-23T07:26:05.450Z,101599.03
2022-09-23T07:28:32.545Z,101594.72
2022-09-23T07:31:07.796Z,101608.66
2022-09-23T07:33:36.972Z,101604.72
2022-09-23T07:36:09.192Z,101599.19
2022-09-23T07:38:37.411Z,101594.25
2022-09-23T07:41:09.262Z,101596.41
2022-09-23T07:43:37.270Z,101599.75
2022-09-23T07:46:08.370Z,101597.13
2022-09-23T07:48:36.091Z,101596.00
2022-09-23T07:51:22.174Z,101595.25
2022-09-23T07:53:51.456Z,101600.63
2022-09-23T07:56:20.198Z,101605.16
2022-09-23T07:59:00.463Z,101604.53
2022-09-23T08:01:36.193Z,101602.63
2022-09-23T08:04:07.285Z,101593.91
2022-09-23T08:06:34.765Z,101594.38
2022-09-23T08:09:01.899Z,101593.72
2022-09-23T08:11:28.988Z,101594.28
2022-09-23T08:13:56.338Z,101591.19
2022-09-23T08:16:23.107Z,101588.16
2022-09-23T08:18:50.134Z,101588.31
2022-09-23T08:21:21.273Z,101596.78
2022-09-23T08:23:49.268Z,101591.34
2022-09-23T08:26:20.850Z,101593.44
2022-09-23T08:28:48.217Z,101598.31
2022-09-23T08:31:15.217Z,101601.66
2022-09-23T08:33:42.126Z,101603.34
2022-09-23T08:36:08.946Z,101604.63
2022-09-23T08:38:36.001Z,101603.66
2022-09-23T08:41:29.266Z,101595.88
2022-09-23T08:44:01.975Z,101598.50
2022-09-23T08:46:35.435Z,101603.00
2022-09-23T08:49:02.509Z,101600.75
2022-09-23T08:51:35.814Z,101601.81
2022-09-23T08:54:02.954Z,101607.16
2022-09-23T08:56:31.126Z,101606.81
2022-09-23T08:59:07.658Z,101607.31
2022-09-23T09:01:37.210Z,101604.53
2022-09-23T09:04:21.773Z,101597.75
2022-09-23T09:07:12.374Z,101603.06
2022-09-23T09:09:58.650Z,101607.41
2022-09-23T09:12:34.210Z,101608.84
2022-09-23T09:15:09.189Z,101606.88
2022-09-23T09:17:48.427Z,101606.13
2022-09-23T09:20:16.921Z,101610.06
2022-09-23T09:23:00.689Z,101606.31
2022-09-23T09:25:40.170Z,101601.09
2022-09-23T09:28:33.974Z,101600.78
2022-09-23T09:31:02.982Z,101603.47
2022-09-23T09:33:47.212Z,101603.66
2022-09-23T09:36:44.537Z,101597.84
2022-09-23T09:39:13.670Z,101602.75
2022-09-23T09:41:50.070Z,101596.47
2022-09-23T09:44:27.077Z,101594.47
2022-09-23T09:47:22.258Z,101595.84
2022-09-23T09:49:58.985Z,101592.28
2022-09-23T09:52:29.029Z,101589.50
2022-09-23T09:55:13.689Z,101583.56
2022-09-23T09:57:44.283Z,101577.56
2022-09-23T10:00:34.838Z,101579.94
2022-09-23T10:03:13.596Z,101574.41
2022-09-23T10:05:45.953Z,101578.03
2022-09-23T10:08:18.846Z,101581.69
2022-09-23T10:11:15.407Z,101585.25
2022-09-23T10:14:09.646Z,101580.00
2022-09-23T10:16:37.211Z,101573.97
2022-09-23T10:19:15.994Z,101574.44
2022-09-23T10:21:43.270Z,101569.69
2022-09-23T10:24:23.565Z,101568.16
2022-09-23T10:27:01.703Z,101570.59
2022-09-23T10:29:33.861Z,101573.78
2022-09-23T10:32:28.200Z,101572.50
2022-09-23T10:35:02.056Z,101559.31
2022-09-23T10:37:40.169Z,101571.22
2022-09-23T10:40:38.278Z,101573.66
2022-09-23T10:44:01.607Z,101568.84
2022-09-23T10:46:46.421Z,101564.81
2022-09-23T10:49:31.863Z,101566.41
2022-09-23T10:52:22.584Z,101569.59
2022-09-23T10:54:49.339Z,101564.91
2022-09-23T10:57:43.526Z,101566.91
2022-09-23T11:00:22.360Z,101564.13
2022-09-23T11:03:19.198Z,101561.41
2022-09-23T11:06:06.768Z,101558.63
2022-09-23T11:08:54.906Z,101561.81
2022-09-23T11:11:47.317Z,101555.81
2022-09-23T11:14:39.344Z,101558.97
2022-09-23T11:17:36.686Z,101557.06
2022-09-23T11:20:18.541Z,101554.25
2022-09-23T11:23:20.236Z,101558.28
2022-09-23T11:25:56.979Z,101561.84
2022-09-23T11:29:06.289Z,101554.31
2022-09-23T11:32:17.939Z,101549.09
2022-09-23T11:35:11.809Z,101544.34
2022-09-23T11:37:45.253Z,101538.34
2022-09-23T11:40:15.637Z,101537.19
2022-09-23T11:42:55.126Z,101539.94
2022-09-23T11:45:29.090Z,101540.72
2022-09-23T11:48:09.198Z,101539.47
2022-09-23T11:50:47.095Z,101536.28
2022-09-23T11:53:46.254Z,101537.03
2022-09-23T11:56:35.565Z,101540.22
2022-09-23T11:59:39.227Z,101529.84
2022-09-23T12:02:22.919Z,101533.03
2022-09-23T12:05:06.939Z,101536.94
2022-09-23T12:07:59.614Z,101526.63
2022-09-23T12:10:54.004Z,101528.13
2022-09-23T12:13:40.735Z,101522.91
2022-09-23T12:16:43.156Z,101519.31
2022-09-23T12:19:47.381Z,101516.16
2022-09-23T12:22:14.792Z,101514.25
2022-09-23T12:25:10.371Z,101518.59
2022-09-23T12:27:39.746Z,101520.97
2022-09-23T12:30:15.037Z,101519.31
2022-09-23T12:32:42.642Z,101512.94
2022-09-23T12:35:37.966Z,101515.34
2022-09-23T12:38:13.799Z,101511.66
2022-09-23T12:40:44.724Z,101513.25
2022-09-23T12:43:20.701Z,101509.31
2022-09-23T12:45:48.141Z,101510.09
2022-09-23T12:48:17.738Z,101512.91
2022-09-23T12:50:58.898Z,101509.00
2022-09-23T12:53:34.960Z,101514.56
2022-09-23T12:56:34.109Z,101516.47
2022-09-23T12:59:23.488Z,101512.44
2022-09-23T13:01:51.373Z,101507.63
2022-09-23T13:05:16.215Z,101504.44
2022-09-23T13:07:47.649Z,101506.78
2022-09-23T13:10:25.908Z,101511.19
2022-09-23T13:12:54.219Z,101503.97
2022-09-23T13:15:34.011Z,101500.75
2022-09-23T13:18:19.558Z,101505.44
2022-09-23T13:20:48.391Z,101501.81
2022-09-23T13:23:30.597Z,101494.19
2022-09-23T13:26:00.949Z,101496.59
2022-09-23T13:28:34.594Z,101498.97
2022-09-23T13:31:15.076Z,101489.41
2022-09-23T13:33:49.245Z,101491.81
2022-09-23T13:36:18.385Z,101486.34
2022-09-23T13:38:48.734Z,101485.22
2022-09-23T13:41:24.455Z,101478.38
2022-09-23T13:44:00.684Z,101481.56
2022-09-23T13:46:32.234Z,101474.78
2022-09-23T13:48:59.189Z,101481.19
2022-09-23T13:51:33.343Z,101476.78
2022-09-23T13:54:02.306Z,101469.59
2022-09-23T13:56:33.020Z,101469.59
2022-09-23T13:59:27.613Z,101471.25
2022-09-23T14:02:06.839Z,101471.72
2022-09-23T14:04:34.227Z,101468.97
2022-09-23T14:07:02.135Z,101461.06
2022-09-23T14:09:30.565Z,101465.50
2022-09-23T14:12:00.859Z,101457.94
2022-09-23T14:14:30.553Z,101452.34
2022-09-23T14:16:58.897Z,101458.69
2022-09-23T14:19:26.622Z,101457.09
2022-09-23T14:21:55.147Z,101447.19
2022-09-23T14:24:30.973Z,101446.78
2022-09-23T14:27:06.610Z,101446.78
2022-09-23T14:29:39.742Z,101446.72
2022-09-23T14:32:21.076Z,101445.91
2022-09-23T14:35:00.441Z,101439.56
2022-09-23T14:37:55.037Z,101431.97
2022-09-23T14:40:25.589Z,101432.47
2022-09-23T14:43:04.487Z,101430.13
2022-09-23T14:45:37.615Z,101426.53
2022-09-23T14:48:10.017Z,101428.53
2022-09-23T14:50:37.961Z,101424.94
2022-09-23T14:53:26.075Z,101421.31
2022-09-23T14:56:07.236Z,101417.34
2022-09-23T14:58:52.934Z,101418.53
2022-09-23T15:01:32.465Z,101410.94
2022-09-23T15:04:09.424Z,101411.69
2022-09-23T15:06:38.277Z,101407.72
2022-09-23T15:09:09.410Z,101406.94
2022-09-23T15:11:36.330Z,101411.75
2022-09-23T15:14:26.309Z,101409.78
2022-09-23T15:16:53.453Z,101402.59
2022-09-23T15:19:22.323Z,101404.59
2022-09-23T15:21:53.237Z,101404.94
2022-09-23T15:24:36.156Z,101399.69
2022-09-23T15:27:03.258Z,101404.81
2022-09-23T15:29:33.015Z,101394.00
2022-09-23T15:32:00.664Z,101400.72
2022-09-23T15:34:27.675Z,101401.50
2022-09-23T15:36:54.433Z,101404.28
2022-09-23T15:39:21.471Z,101400.63
2022-09-23T15:41:48.279Z,101397.41
2022-09-23T15:44:18.580Z,101400.94
2022-09-23T15:46:46.958Z,101395.00
2022-09-23T15:49:28.535Z,101404.91
2022-09-23T15:51:59.822Z,101399.69
2022-09-23T15:54:31.392Z,101397.59
2022-09-23T15:56:58.610Z,101393.97
2022-09-23T15:59:25.345Z,101388.34
2022-09-23T16:01:53.634Z,101384.72
2022-09-23T16:04:21.850Z,101387.06
2022-09-23T16:06:48.614Z,101394.25
2022-09-23T16:09:16.145Z,101386.97
2022-09-23T16:11:48.569Z,101381.56
2022-09-23T16:14:17.379Z,101386.75
2022-09-23T16:16:47.069Z,101376.38
2022-09-23T16:19:17.810Z,101390.25
2022-09-23T16:21:45.248Z,101379.56
2022-09-23T16:24:18.009Z,101381.56
2022-09-23T16:26:47.511Z,101379.16
2022-09-23T16:29:15.026Z,101375.56
2022-09-23T16:31:42.129Z,101375.22
2022-09-23T16:34:09.678Z,101376.78
2022-09-23T16:36:42.105Z,101379.16
2022-09-23T16:39:12.384Z,101380.75
2022-09-23T16:41:39.915Z,101379.50
2022-09-23T16:44:09.437Z,101380.63
2022-09-23T16:46:36.919Z,101367.84
2022-09-23T16:49:03.979Z,101373.06
2022-09-23T16:51:38.543Z,101380.19
2022-09-23T16:54:12.732Z,101378.22
2022-09-23T16:56:45.225Z,101378.63
2022-09-23T16:59:13.469Z,101371.03
2022-09-23T17:01:59.476Z,101381.38
2022-09-23T17:04:27.820Z,101373.38
2022-09-23T17:06:56.035Z,101382.50
2022-09-23T17:09:26.571Z,101371.00
2022-09-23T17:12:20.204Z,101373.75
2022-09-23T17:14:47.133Z,101368.53
2022-09-23T17:17:14.025Z,101370.88
2022-09-23T17:19:41.625Z,101361.28
2022-09-23T17:22:08.554Z,101364.44
2022-09-23T17:24:35.499Z,101369.19
2022-09-23T17:27:03.091Z,101363.63
2022-09-23T17:29:30.524Z,101369.53
2022-09-23T17:31:58.102Z,101363.91
2022-09-23T17:34:25.211Z,101373.00
2022-09-23T17:36:52.365Z,101361.06
2022-09-23T17:39:19.455Z,101363.00
2022-09-23T17:41:46.379Z,101357.81
2022-09-23T17:44:14.257Z,101358.56
2022-09-23T17:46:41.040Z,101362.13
2022-09-23T17:49:08.529Z,101358.13
2022-09-23T17:51:35.534Z,101353.75
2022-09-23T17:54:02.476Z,101347.75
2022-09-23T17:56:32.884Z,101351.75
2022-09-23T17:59:02.117Z,101351.31
2022-09-23T18:01:30.251Z,101356.06
2022-09-23T18:03:59.825Z,101350.47
2022-09-23T18:06:31.994Z,101352.03
2022-09-23T18:09:07.531Z,101356.84
2022-09-23T18:11:37.622Z,101352.03
2022-09-23T18:14:07.675Z,101351.22
2022-09-23T18:16:36.848Z,101352.38
2022-09-23T18:19:04.937Z,101350.00
2022-09-23T18:21:35.049Z,101358.75
2022-09-23T18:24:28.057Z,101347.63
2022-09-23T18:26:49.991Z,101351.56
2022-09-23T18:29:17.042Z,101346.00
2022-09-23T18:31:45.082Z,101343.63
2022-09-23T18:34:16.954Z,101353.56
2022-09-23T18:36:44.668Z,101346.00
2022-09-23T18:39:11.803Z,101348.78
2022-09-23T18:41:38.825Z,101350.00
2022-09-23T18:44:05.869Z,101345.66
2022-09-23T18:46:32.753Z,101340.09
2022-09-23T18:49:18.548Z,101340.84
2022-09-23T18:51:56.146Z,101355.50
2022-09-23T18:54:24.987Z,101352.28
2022-09-23T18:56:52.858Z,101345.16
2022-09-23T18:59:23.968Z,101340.81
2022-09-23T19:01:51.916Z,101343.19
2022-09-23T19:04:20.595Z,101342.03
2022-09-23T19:06:48.032Z,101352.34
2022-09-23T19:09:15.651Z,101335.19
2022-09-23T19:11:42.958Z,101334.44
2022-09-23T19:14:11.632Z,101338.03
2022-09-23T19:16:40.433Z,101334.44
2022-09-23T19:19:08.020Z,101333.63
2022-09-23T19:21:34.900Z,101334.03
2022-09-23T19:24:05.168Z,101332.06
2022-09-23T19:26:36.735Z,101330.41
2022-09-23T19:29:05.535Z,101322.47
2022-09-23T19:31:35.320Z,101326.00
2022-09-23T19:34:10.857Z,101322.81
2022-09-23T19:36:39.618Z,101322.41
2022-09-23T19:39:09.053Z,101339.50
2022-09-23T19:41:36.041Z,101320.03
2022-09-23T19:44:03.959Z,101322.88
2022-09-23T19:46:32.539Z,101327.63
2022-09-23T19:49:00.694Z,101320.94
2022-09-23T19:51:28.416Z,101329.28
2022-09-23T19:53:55.180Z,101330.50
2022-09-23T19:56:22.304Z,101325.69
2022-09-23T19:58:52.432Z,101320.13
2022-09-23T20:01:19.789Z,101329.69
2022-09-23T20:03:47.605Z,101324.59
2022-09-23T20:06:15.747Z,101325.03
2022-09-23T20:08:43.607Z,101327.81
2022-09-23T20:11:19.661Z,101325.81
2022-09-23T20:13:47.657Z,101311.84
2022-09-23T20:16:19.947Z,101315.00
2022-09-23T20:18:47.215Z,101308.63
2022-09-23T20:21:15.619Z,101305.03
2022-09-23T20:23:43.968Z,101301.84
2022-09-23T20:26:29.562Z,101303.84
2022-09-23T20:28:56.767Z,101298.63
2022-09-23T20:31:23.934Z,101300.50
2022-09-23T20:33:53.748Z,101302.91
2022-09-23T20:36:20.740Z,101303.34
2022-09-23T20:38:47.532Z,101292.16
2022-09-23T20:41:15.486Z,101300.91
2022-09-23T20:43:42.617Z,101296.16
2022-09-23T20:46:09.678Z,101293.31
2022-09-23T20:48:36.597Z,101300.91
2022-09-23T20:51:05.881Z,101300.09
2022-09-23T20:53:33.058Z,101298.13
2022-09-23T20:56:00.380Z,101293.38
2022-09-23T20:58:32.925Z,101294.94
2022-09-23T21:01:04.538Z,101290.59
2022-09-23T21:03:32.793Z,101299.34
2022-09-23T21:06:01.936Z,101301.75
2022-09-23T21:08:29.134Z,101286.66
2022-09-23T21:10:59.911Z,101293.44
2022-09-23T21:13:27.079Z,101296.97
2022-09-23T21:15:54.055Z,101291.84
2022-09-23T21:18:22.644Z,101290.28
2022-09-23T21:20:59.839Z,101290.28
2022-09-23T21:23:27.431Z,101285.94
2022-09-23T21:26:06.855Z,101285.09
2022-09-23T21:28:35.512Z,101286.66
2022-09-23T21:31:08.012Z,101284.69
2022-09-23T21:33:37.499Z,101275.13
2022-09-23T21:36:06.398Z,101285.03
2022-09-23T21:38:37.349Z,101285.00
2022-09-23T21:41:10.140Z,101278.63
2022-09-23T21:43:39.299Z,101284.59
2022-09-23T21:46:20.097Z,101276.19
2022-09-23T21:48:49.910Z,101276.97
2022-09-23T21:51:19.945Z,101272.97
2022-09-23T21:53:47.422Z,101278.94
2022-09-23T21:56:20.720Z,101288.03
2022-09-23T21:58:49.130Z,101280.06
2022-09-23T22:01:24.898Z,101287.13
2022-09-23T22:03:54.357Z,101280.78
2022-09-23T22:06:24.554Z,101273.22
2022-09-23T22:08:59.215Z,101278.47
2022-09-23T22:11:47.510Z,101280.06
2022-09-23T22:14:16.225Z,101270.94
2022-09-23T22:16:43.850Z,101270.50
2022-09-23T22:19:12.599Z,101269.28
2022-09-23T22:21:42.149Z,101266.50
2022-09-23T22:24:11.007Z,101270.16
2022-09-23T22:26:40.768Z,101269.38
2022-09-23T22:29:28.974Z,101264.25
2022-09-23T22:32:14.666Z,101274.53
2022-09-23T22:34:52.158Z,101269.44
2022-09-23T22:37:28.016Z,101263.47
2022-09-23T22:39:57.419Z,101268.28
2022-09-23T22:42:24.479Z,101263.94
2022-09-23T22:44:51.689Z,101266.75
2022-09-23T22:47:20.307Z,101259.63
2022-09-23T22:49:48.097Z,101264.88
2022-09-23T22:52:16.182Z,101264.06
2022-09-23T22:54:43.467Z,101259.69
2022-09-23T22:57:10.544Z,101259.31
2022-09-23T22:59:37.594Z,101261.34
2022-09-23T23:02:06.743Z,101255.00
2022-09-23T23:04:33.893Z,101261.75
2022-09-23T23:07:00.757Z,101261.34
2022-09-23T23:09:27.570Z,101255.00
2022-09-23T23:11:54.459Z,101255.78
2022-09-23T23:14:21.525Z,101247.09
2022-09-23T23:16:48.595Z,101243.94
2022-09-23T23:19:17.627Z,101245.16
2022-09-23T23:21:45.255Z,101241.66
2022-09-23T23:24:20.824Z,101250.81
2022-09-23T23:26:48.621Z,101244.50
2022-09-23T23:29:18.325Z,101241.72
2022-09-23T23:31:45.386Z,101234.56
2022-09-23T23:34:14.887Z,101235.41
2022-09-23T23:36:43.673Z,101237.41
2022-09-23T23:39:11.529Z,101241.00
2022-09-23T23:41:42.485Z,101243.00
2022-09-23T23:44:11.898Z,101244.22
2022-09-23T23:46:38.785Z,101239.88
2022-09-23T23:49:06.815Z,101241.03
2022-09-23T23:51:33.746Z,101239.50
2022-09-23T23:54:00.913Z,101239.09
2022-09-23T23:56:30.474Z,101242.69
2022-09-23T23:59:00.892Z,101233.16
